createdAt,value
2017-08-01T00:04:25.699Z,1007.06
2017-08-01T00:09:22.519Z,1007.04
2017-08-01T00:14:18.227Z,1006.92
2017-08-01T00:19:14.839Z,1006.73
2017-08-01T00:24:10.752Z,1006.65
2017-08-01T00:29:07.905Z,1006.23
2017-08-01T00:34:03.430Z,1006.46
2017-08-01T00:38:59.720Z,1006.58
2017-08-01T00:43:56.672Z,1006.38
2017-08-01T00:48:53.433Z,1006.28
2017-08-01T00:53:49.064Z,1006.57
2017-08-01T00:58:44.867Z,1006.58
2017-08-01T01:03:41.936Z,1006.31
2017-08-01T01:08:37.486Z,1006.15
2017-08-01T01:13:33.429Z,1006.48
2017-08-01T01:18:29.222Z,1006.48
2017-08-01T01:23:24.959Z,1006.50
2017-08-01T01:28:21.288Z,1006.45
2017-08-01T01:33:17.175Z,1006.58
2017-08-01T01:38:13.139Z,1006.71
2017-08-01T01:43:10.367Z,1006.63
2017-08-01T01:48:06.604Z,1006.69
2017-08-01T01:53:03.920Z,1006.83
2017-08-01T01:57:59.863Z,1006.87
2017-08-01T02:02:55.997Z,1006.86
2017-08-01T02:07:52.597Z,1006.88
2017-08-01T02:12:48.615Z,1006.95
2017-08-01T02:17:44.843Z,1006.92
2017-08-01T02:22:40.863Z,1006.87
2017-08-01T02:27:37.544Z,1006.87
2017-08-01T02:32:33.744Z,1006.84
2017-08-01T02:37:30.767Z,1006.91
2017-08-01T02:42:27.542Z,1006.90
2017-08-01T02:47:24.215Z,1006.85
2017-08-01T02:52:20.776Z,1006.83
2017-08-01T02:57:17.313Z,1006.90
2017-08-01T03:02:13.031Z,1006.73
2017-08-01T03:07:08.926Z,1006.53
2017-08-01T03:12:05.012Z,1006.45
2017-08-01T03:17:01.819Z,1006.51
2017-08-01T03:21:58.730Z,1006.44
2017-08-01T03:26:54.194Z,1006.50
2017-08-01T03:31:50.208Z,1006.57
2017-08-01T03:36:46.258Z,1006.50
2017-08-01T03:41:42.166Z,1006.61
2017-08-01T03:46:39.670Z,1006.48
2017-08-01T03:51:35.357Z,1006.43
2017-08-01T03:56:31.197Z,1006.38
2017-08-01T04:01:28.412Z,1006.34
2017-08-01T04:06:24.569Z,1006.41
2017-08-01T04:11:21.767Z,1006.32
2017-08-01T04:16:17.459Z,1006.36
2017-08-01T04:21:13.578Z,1006.36
2017-08-01T04:26:10.597Z,1006.26
2017-08-01T04:31:06.978Z,1006.34
2017-08-01T04:36:03.513Z,1006.29
2017-08-01T04:41:00.412Z,1006.30
2017-08-01T04:45:56.341Z,1006.29
2017-08-01T04:50:53.598Z,1006.55
2017-08-01T04:55:50.430Z,1006.51
2017-08-01T05:00:46.403Z,1006.46
2017-08-01T05:05:43.467Z,1006.32
2017-08-01T05:10:39.718Z,1006.16
2017-08-01T05:15:37.190Z,1006.28
2017-08-01T05:20:33.926Z,1006.31
2017-08-01T05:25:30.950Z,1006.32
2017-08-01T05:30:26.743Z,1006.59
2017-08-01T05:35:22.869Z,1006.73
2017-08-01T05:40:18.905Z,1006.86
2017-08-01T05:45:14.686Z,1007.08
2017-08-01T05:50:10.828Z,1006.89
2017-08-01T05:55:06.895Z,1006.63
2017-08-01T06:00:03.880Z,1006.67
2017-08-01T06:04:59.964Z,1006.71
2017-08-01T06:09:55.896Z,1006.91
2017-08-01T06:14:51.975Z,1006.88
2017-08-01T06:19:47.980Z,1006.95
2017-08-01T06:24:44.180Z,1006.98
2017-08-01T06:29:42.159Z,1006.97
2017-08-01T06:34:37.535Z,1007.13
2017-08-01T06:39:34.499Z,1007.15
2017-08-01T06:44:30.385Z,1007.28
2017-08-01T06:49:26.716Z,1007.27
2017-08-01T06:54:22.934Z,1007.32
2017-08-01T06:59:19.353Z,1007.36
2017-08-01T07:04:16.533Z,1007.52
2017-08-01T07:09:12.629Z,1007.61
2017-08-01T07:14:09.297Z,1007.49
2017-08-01T07:19:07.233Z,1007.62
2017-08-01T07:24:03.948Z,1007.79
2017-08-01T07:28:59.730Z,1007.79
2017-08-01T07:33:55.622Z,1007.69
2017-08-01T07:38:52.796Z,1007.76
2017-08-01T07:43:48.995Z,1007.70
2017-08-01T07:48:44.933Z,1007.68
2017-08-01T07:53:40.978Z,1007.66
2017-08-01T07:58:37.401Z,1007.81
2017-08-01T08:03:34.225Z,1007.93
2017-08-01T08:08:30.791Z,1007.96
2017-08-01T08:13:28.381Z,1007.98
2017-08-01T08:18:25.263Z,1007.93
2017-08-01T08:23:21.845Z,1007.91
2017-08-01T08:28:17.619Z,1007.85
2017-08-01T08:33:14.543Z,1007.69
2017-08-01T08:38:10.201Z,1007.65
2017-08-01T08:43:07.374Z,1007.70
2017-08-01T08:48:04.396Z,1007.78
2017-08-01T08:53:01.516Z,1007.91
2017-08-01T08:57:57.053Z,1007.91
2017-08-01T09:02:54.130Z,1007.74
2017-08-01T09:07:50.242Z,1007.85
2017-08-01T09:12:46.305Z,1008.01
2017-08-01T09:17:42.400Z,1008.09
2017-08-01T09:22:37.990Z,1008.07
2017-08-01T09:27:34.509Z,1008.02
2017-08-01T09:32:30.984Z,1007.92
2017-08-01T09:37:28.503Z,1007.63
2017-08-01T09:42:24.634Z,1007.27
2017-08-01T09:47:21.710Z,1007.05
2017-08-01T09:52:17.300Z,1006.89
2017-08-01T09:57:14.007Z,1007.12
2017-08-01T10:02:10.399Z,1007.29
2017-08-01T10:07:06.135Z,1007.47
2017-08-01T10:12:02.116Z,1007.61
2017-08-01T10:16:59.126Z,1007.81
2017-08-01T10:21:55.714Z,1007.94
2017-08-01T10:26:52.352Z,1008.14
2017-08-01T10:31:49.011Z,1008.16
2017-08-01T10:36:45.339Z,1008.08
2017-08-01T10:41:44.749Z,1007.94
2017-08-01T10:46:43.179Z,1007.85
2017-08-01T10:51:39.792Z,1008.12
2017-08-01T10:56:37.033Z,1008.08
2017-08-01T11:01:33.162Z,1008.18
2017-08-01T11:06:28.359Z,1008.28
2017-08-01T11:11:24.462Z,1008.33
2017-08-01T11:16:21.179Z,1008.37
2017-08-01T11:21:16.635Z,1008.30
2017-08-01T11:26:14.485Z,1008.23
2017-08-01T11:31:12.466Z,1008.22
2017-08-01T11:36:09.998Z,1008.47
2017-08-01T11:41:08.067Z,1008.43
2017-08-01T11:46:02.859Z,1008.52
2017-08-01T11:50:57.709Z,1008.55
2017-08-01T11:55:52.815Z,1008.63
2017-08-01T12:00:48.760Z,1008.70
2017-08-01T12:05:44.384Z,1008.67
2017-08-01T12:10:40.327Z,1008.65
2017-08-01T12:15:36.436Z,1008.55
2017-08-01T12:20:35.063Z,1008.42
2017-08-01T12:25:31.644Z,1008.34
2017-08-01T12:30:27.245Z,1008.46
2017-08-01T12:35:24.622Z,1008.39
2017-08-01T12:40:21.591Z,1008.38
2017-08-01T12:45:18.126Z,1008.37
2017-08-01T12:50:14.779Z,1008.46
2017-08-01T12:55:11.399Z,1008.34
2017-08-01T13:00:08.588Z,1008.38
2017-08-01T13:05:05.191Z,1008.43
2017-08-01T13:10:01.906Z,1008.37
2017-08-01T13:14:58.215Z,1008.39
2017-08-01T13:19:53.890Z,1008.49
2017-08-01T13:24:50.673Z,1008.53
2017-08-01T13:29:47.290Z,1008.64
2017-08-01T13:34:42.781Z,1008.72
2017-08-01T13:39:38.623Z,1008.79
2017-08-01T13:44:34.530Z,1008.92
2017-08-01T13:49:30.354Z,1008.76
2017-08-01T13:54:28.045Z,1008.74
2017-08-01T13:59:25.241Z,1008.67
2017-08-01T14:04:21.458Z,1008.56
2017-08-01T14:09:19.700Z,1008.41
2017-08-01T14:14:15.094Z,1008.49
2017-08-01T14:19:10.995Z,1008.46
2017-08-01T14:24:06.703Z,1008.70
2017-08-01T14:29:04.774Z,1008.76
2017-08-01T14:34:01.029Z,1008.83
2017-08-01T14:38:56.668Z,1008.83
2017-08-01T14:43:53.078Z,1008.86
2017-08-01T14:48:49.421Z,1008.82
2017-08-01T14:53:47.618Z,1008.63
2017-08-01T14:58:42.975Z,1008.61
2017-08-01T15:03:40.919Z,1008.66
2017-08-01T15:08:37.766Z,1008.70
2017-08-01T15:13:34.539Z,1008.59
2017-08-01T15:18:30.197Z,1008.57
2017-08-01T15:23:27.295Z,1008.69
2017-08-01T15:28:23.848Z,1008.65
2017-08-01T15:33:19.652Z,1008.82
2017-08-01T15:38:17.395Z,1008.80
2017-08-01T15:43:13.683Z,1008.82
2017-08-01T15:48:09.370Z,1008.85
2017-08-01T15:53:08.807Z,1008.86
2017-08-01T15:58:04.843Z,1008.82
2017-08-01T16:03:01.855Z,1008.84
2017-08-01T16:07:57.641Z,1008.80
2017-08-01T16:12:53.696Z,1008.70
2017-08-01T16:17:49.630Z,1008.80
2017-08-01T16:22:46.770Z,1008.84
2017-08-01T16:27:43.307Z,1008.97
2017-08-01T16:32:38.743Z,1008.81
2017-08-01T16:37:35.739Z,1008.80
2017-08-01T16:42:32.461Z,1008.91
2017-08-01T16:47:29.111Z,1008.95
2017-08-01T16:52:24.690Z,1009.00
2017-08-01T16:57:21.339Z,1008.95
2017-08-01T17:02:20.361Z,1009.15
2017-08-01T17:07:16.873Z,1009.13
2017-08-01T17:12:12.437Z,1009.11
2017-08-01T17:17:09.535Z,1009.10
2017-08-01T17:22:05.116Z,1009.15
2017-08-01T17:27:02.027Z,1009.11
2017-08-01T17:31:58.606Z,1009.03
2017-08-01T17:36:54.296Z,1009.06
2017-08-01T17:41:51.474Z,1009.13
2017-08-01T17:46:48.349Z,1009.05
2017-08-01T17:51:45.407Z,1009.22
2017-08-01T17:56:41.026Z,1009.19
2017-08-01T18:01:37.046Z,1009.15
2017-08-01T18:06:32.829Z,1008.93
2017-08-01T18:11:29.031Z,1008.91
2017-08-01T18:16:24.809Z,1009.02
2017-08-01T18:21:20.676Z,1009.07
2017-08-01T18:26:18.433Z,1008.85
2017-08-01T18:31:16.159Z,1009.17
2017-08-01T18:36:13.404Z,1009.19
2017-08-01T18:41:09.951Z,1009.32
2017-08-01T18:46:06.550Z,1009.39
2017-08-01T18:51:03.202Z,1009.41
2017-08-01T18:55:58.870Z,1009.45
2017-08-01T19:00:55.775Z,1009.59
2017-08-01T19:05:51.080Z,1009.57
2017-08-01T19:10:48.505Z,1009.60
2017-08-01T19:15:45.154Z,1009.53
2017-08-01T19:20:40.959Z,1009.77
2017-08-01T19:25:37.477Z,1009.92
2017-08-01T19:30:33.527Z,1009.84
2017-08-01T19:35:30.183Z,1010.03
2017-08-01T19:40:26.458Z,1010.01
2017-08-01T19:45:22.904Z,1010.21
2017-08-01T19:50:19.758Z,1010.26
2017-08-01T19:55:15.774Z,1010.32
2017-08-01T20:00:11.324Z,1010.36
2017-08-01T20:05:08.839Z,1010.48
2017-08-01T20:10:05.628Z,1010.56
2017-08-01T20:15:01.136Z,1010.45
2017-08-01T20:19:56.966Z,1010.53
2017-08-01T20:24:53.331Z,1010.52
2017-08-01T20:29:49.380Z,1010.48
2017-08-01T20:34:45.426Z,1010.52
2017-08-01T20:39:42.378Z,1010.49
2017-08-01T20:44:38.968Z,1010.44
2017-08-01T20:49:35.623Z,1010.42
2017-08-01T20:54:32.238Z,1010.34
2017-08-01T20:59:27.767Z,1010.35
2017-08-01T21:04:23.930Z,1010.40
2017-08-01T21:09:19.833Z,1010.23
2017-08-01T21:14:15.698Z,1010.19
2017-08-01T21:19:11.561Z,1010.27
2017-08-01T21:29:03.608Z,1010.37
2017-08-01T21:34:00.587Z,1010.31
2017-08-01T21:38:56.152Z,1010.40
2017-08-01T21:43:53.047Z,1010.45
2017-08-01T21:48:49.373Z,1010.36
2017-08-01T21:53:46.161Z,1010.47
2017-08-01T21:58:41.673Z,1010.44
2017-08-01T22:03:38.875Z,1010.54
2017-08-01T22:08:34.566Z,1010.45
2017-08-01T22:13:31.293Z,1010.42
2017-08-01T22:18:26.779Z,1010.41
2017-08-01T22:23:23.748Z,1010.37
2017-08-01T22:28:19.425Z,1010.53
2017-08-01T22:33:15.463Z,1010.43
2017-08-01T22:38:13.247Z,1010.54
2017-08-01T22:43:09.630Z,1010.45
2017-08-01T22:48:06.196Z,1010.50
2017-08-01T22:53:01.670Z,1010.56
2017-08-01T22:57:57.590Z,1010.57
2017-08-01T23:02:53.586Z,1010.48
2017-08-01T23:07:49.472Z,1010.49
2017-08-01T23:12:46.900Z,1010.51
2017-08-01T23:17:43.310Z,1010.57
2017-08-01T23:22:40.797Z,1010.57
2017-08-01T23:27:40.423Z,1010.66
2017-08-01T23:32:35.878Z,1010.64
2017-08-01T23:37:31.845Z,1010.67
2017-08-01T23:42:29.564Z,1010.67
2017-08-01T23:47:26.708Z,1010.65
2017-08-01T23:52:22.126Z,1010.71
2017-08-01T23:57:18.885Z,1010.73
